Time;durP1;ratioP1;P1;durP2;ratioP2;P2;SDS_P1;SDS_P2;PMS_P1;PMS_P2;Temp;Humidity;BMP_temperature;BMP_pressure;BME280_temperature;BME280_humidity;BME280_pressure;Samples;Min_cycle;Max_cycle;Signal;HPM_P1;HPM_P2
2023/07/03 00:02:15;;;;;;;31.05;13.45;;;;;13.20;96050.00;;;;8320490;28;20231;-64
2023/07/03 00:06:23;;;;;;;26.80;13.38;;;;;13.20;96048.00;;;;8312600;28;20295;-67
2023/07/03 00:10:29;;;;;;;33.83;14.57;;;;;13.30;96046.00;;;;8301960;28;20290;-67
2023/07/03 00:14:35;;;;;;;38.55;15.60;;;;;13.30;96047.00;;;;8321028;28;20738;-64
2023/07/03 00:18:39;;;;;;;35.78;14.07;;;;;13.10;96049.00;;;;8310636;28;20672;-69
2023/07/03 00:22:46;;;;;;;29.25;14.77;;;;;12.80;96058.00;;;;8316644;28;20825;-66
2023/07/03 00:26:55;;;;;;;29.25;13.57;;;;;12.70;96054.00;;;;8304303;28;20569;-64
2023/07/03 00:30:58;;;;;;;31.52;14.00;;;;;12.70;96055.00;;;;8315893;28;20229;-68
2023/07/03 00:35:02;;;;;;;36.35;15.07;;;;;12.60;96053.00;;;;8310088;28;20568;-63
2023/07/03 00:39:08;;;;;;;36.38;15.52;;;;;12.60;96063.00;;;;8315319;28;20230;-64
2023/07/03 00:43:13;;;;;;;35.08;15.13;;;;;12.70;96057.00;;;;8314136;28;20687;-66
2023/07/03 00:47:18;;;;;;;36.22;14.23;;;;;13.00;96064.00;;;;8318183;28;20283;-63
2023/07/03 00:51:23;;;;;;;37.95;14.60;;;;;13.30;96062.00;;;;8312535;28;20203;-67
2023/07/03 00:55:28;;;;;;;31.88;15.05;;;;;13.40;96056.00;;;;8316127;28;20753;-67
2023/07/03 00:59:34;;;;;;;35.80;14.05;;;;;13.50;96059.00;;;;8312204;28;20204;-67
2023/07/03 01:03:41;;;;;;;37.38;15.13;;;;;13.50;96059.00;;;;8312275;28;20228;-65
2023/07/03 01:07:50;;;;;;;33.50;14.77;;;;;13.40;96060.00;;;;8316167;28;20561;-70
2023/07/03 01:11:56;;;;;;;37.88;15.27;;;;;13.30;96054.00;;;;8315291;28;20232;-65
2023/07/03 01:15:59;;;;;;;30.10;13.43;;;;;13.30;96061.00;;;;8307091;28;20319;-65
2023/07/03 01:20:09;;;;;;;27.17;13.98;;;;;13.40;96052.00;;;;8312843;28;20206;-67
2023/07/03 01:24:15;;;;;;;32.63;14.35;;;;;13.50;96056.00;;;;8317363;28;20223;-66
2023/07/03 01:28:21;;;;;;;31.45;13.70;;;;;13.60;96053.00;;;;8317610;28;20236;-64
2023/07/03 01:32:29;;;;;;;33.78;14.55;;;;;13.70;96059.00;;;;8324419;28;20204;-64
2023/07/03 01:36:34;;;;;;;33.17;14.40;;;;;13.80;96055.00;;;;8321225;28;20200;-66
2023/07/03 01:40:38;;;;;;;31.88;14.25;;;;;13.90;96056.00;;;;8324556;28;20197;-66
2023/07/03 01:44:43;;;;;;;33.50;14.38;;;;;14.00;96047.00;;;;8324742;28;20235;-64
2023/07/03 01:48:47;;;;;;;32.22;14.75;;;;;14.10;96047.00;;;;8324786;28;20208;-67
2023/07/03 01:52:55;;;;;;;31.02;14.50;;;;;14.10;96054.00;;;;8318784;28;20666;-66
2023/07/03 01:57:03;;;;;;;28.95;13.45;;;;;13.90;96047.00;;;;8314257;28;20215;-67
2023/07/03 02:01:15;;;;;;;25.27;12.77;;;;;13.90;96050.00;;;;8324383;28;20204;-64
2023/07/03 02:05:25;;;;;;;26.45;13.38;;;;;13.90;96045.00;;;;8322908;28;20280;-69
2023/07/03 02:09:28;;;;;;;27.58;12.85;;;;;14.00;96053.00;;;;8317609;28;20786;-63
2023/07/03 02:13:31;;;;;;;31.05;14.45;;;;;14.00;96050.00;;;;8324822;28;20231;-66
2023/07/03 02:17:38;;;;;;;23.05;12.00;;;;;13.80;96057.00;;;;8313567;28;20216;-66
2023/07/03 02:21:50;;;;;;;30.73;13.80;;;;;13.80;96056.00;;;;8318490;28;20208;-63
2023/07/03 02:25:58;;;;;;;25.73;13.23;;;;;13.80;96053.00;;;;8319891;28;20426;-66
2023/07/03 02:30:01;;;;;;;28.23;13.00;;;;;13.90;96050.00;;;;8324906;28;20287;-64
2023/07/03 02:34:06;;;;;;;32.22;14.18;;;;;13.90;96059.00;;;;8323100;28;20346;-65
2023/07/03 02:38:09;;;;;;;28.58;14.07;;;;;14.10;96060.00;;;;8316113;28;20204;-64
2023/07/03 02:42:14;;;;;;;31.65;13.13;;;;;14.20;96059.00;;;;8322465;28;20279;-66
2023/07/03 02:46:17;;;;;;;34.78;14.68;;;;;14.30;96058.00;;;;8317199;28;20195;-65
2023/07/03 02:50:23;;;;;;;28.20;13.38;;;;;14.40;96056.00;;;;8322546;28;20234;-65
2023/07/03 02:54:27;;;;;;;28.50;13.57;;;;;14.50;96057.00;;;;8328387;28;20850;-68
2023/07/03 02:58:32;;;;;;;29.23;13.10;;;;;14.70;96057.00;;;;8319181;28;20205;-66
2023/07/03 03:02:35;;;;;;;25.77;13.50;;;;;14.80;96055.00;;;;8342539;23;20238;-65
2023/07/03 03:06:42;;;;;;;31.33;13.25;;;;;14.90;96054.00;;;;8258221;28;20920;-65
2023/07/03 03:10:46;;;;;;;33.40;13.82;;;;;14.90;96055.00;;;;8243546;28;20320;-70
2023/07/03 03:14:49;;;;;;;27.92;13.77;;;;;15.00;96053.00;;;;8258098;28;20289;-65
2023/07/03 03:18:55;;;;;;;27.00;13.05;;;;;15.10;96055.00;;;;8254374;28;20205;-67
2023/07/03 03:23:00;;;;;;;32.47;14.55;;;;;15.20;96060.00;;;;8252366;28;20203;-69
2023/07/03 03:27:06;;;;;;;29.40;13.18;;;;;15.20;96063.00;;;;8256009;28;20211;-67
2023/07/03 03:31:10;;;;;;;27.20;14.57;;;;;15.30;96061.00;;;;8248784;28;20211;-66
2023/07/03 03:35:14;;;;;;;29.10;14.05;;;;;15.30;96067.00;;;;8256040;28;20235;-67
2023/07/03 03:39:18;;;;;;;31.77;13.95;;;;;15.40;96061.00;;;;8238789;28;20301;-66
2023/07/03 03:43:29;;;;;;;27.95;13.35;;;;;15.50;96065.00;;;;8254309;28;20199;-67
2023/07/03 03:47:32;;;;;;;31.42;13.57;;;;;15.50;96066.00;;;;8243067;28;20688;-67
2023/07/03 03:51:36;;;;;;;31.88;14.57;;;;;15.60;96059.00;;;;8235633;28;20289;-66
2023/07/03 03:55:43;;;;;;;32.22;14.10;;;;;15.80;96065.00;;;;8237178;28;20258;-66
2023/07/03 03:59:46;;;;;;;34.38;15.00;;;;;15.90;96069.00;;;;8248965;28;20357;-66
2023/07/03 04:03:56;;;;;;;29.30;13.60;;;;;16.10;96059.00;;;;8242198;28;20299;-64
2023/07/03 04:08:01;;;;;;;34.50;14.30;;;;;16.20;96067.00;;;;8243402;28;20239;-66
2023/07/03 04:12:07;;;;;;;29.48;13.57;;;;;16.30;96061.00;;;;8248015;28;20248;-67
2023/07/03 04:16:13;;;;;;;32.70;13.88;;;;;16.50;96069.00;;;;8250574;28;20227;-66
2023/07/03 04:20:22;;;;;;;28.02;13.70;;;;;16.60;96071.00;;;;8245004;28;20229;-67
2023/07/03 04:24:30;;;;;;;34.75;14.10;;;;;16.70;96077.00;;;;8249227;28;20198;-66
2023/07/03 04:28:34;;;;;;;29.40;13.90;;;;;16.90;96068.00;;;;8261006;28;21099;-67
2023/07/03 04:32:40;;;;;;;32.58;14.25;;;;;17.10;96064.00;;;;8248757;28;20744;-65
2023/07/03 04:36:47;;;;;;;26.02;13.20;;;;;17.30;96071.00;;;;8233638;28;20310;-64
2023/07/03 04:40:51;;;;;;;28.98;13.38;;;;;17.40;96066.00;;;;8244122;28;20233;-67
2023/07/03 04:45:00;;;;;;;34.90;14.75;;;;;17.60;96077.00;;;;8237414;28;20243;-67
2023/07/03 04:49:06;;;;;;;30.75;13.27;;;;;17.80;96082.00;;;;8254006;28;20225;-68
2023/07/03 04:53:12;;;;;;;28.10;13.63;;;;;17.90;96085.00;;;;8249539;28;22303;-65
2023/07/03 04:57:15;;;;;;;23.60;13.52;;;;;18.10;96078.00;;;;8253917;28;20855;-66
2023/07/03 05:01:24;;;;;;;26.73;13.23;;;;;18.20;96087.00;;;;8250040;28;20203;-66
2023/07/03 05:05:27;;;;;;;29.80;13.40;;;;;18.40;96083.00;;;;8255926;28;20289;-68
2023/07/03 05:09:33;;;;;;;27.60;13.45;;;;;18.50;96084.00;;;;8260382;28;20202;-67
2023/07/03 05:13:45;;;;;;;30.25;12.27;;;;;18.70;96080.00;;;;8255918;28;20187;-67
2023/07/03 05:17:59;;;;;;;25.58;11.52;;;;;18.80;96085.00;;;;8258074;28;20194;-69
2023/07/03 05:22:02;;;;;;;31.38;12.07;;;;;18.90;96084.00;;;;8257972;28;20210;-67
2023/07/03 05:26:11;;;;;;;28.95;13.27;;;;;19.20;96088.00;;;;8248620;28;20222;-69
2023/07/03 05:30:20;;;;;;;32.25;12.90;;;;;19.30;96098.00;;;;8256414;28;20924;-65
2023/07/03 05:34:24;;;;;;;30.52;12.63;;;;;19.40;96095.00;;;;8268966;28;20232;-65
2023/07/03 05:38:31;;;;;;;25.98;11.82;;;;;19.60;96099.00;;;;8260345;28;20230;-63
2023/07/03 05:42:38;;;;;;;29.55;12.50;;;;;19.80;96096.00;;;;8259764;28;20827;-62
2023/07/03 05:46:43;;;;;;;32.25;13.40;;;;;20.00;96104.00;;;;8254826;28;20202;-64
2023/07/03 05:50:49;;;;;;;23.02;11.13;;;;;20.20;96107.00;;;;8257615;28;20202;-62
2023/07/03 05:54:54;;;;;;;29.23;12.85;;;;;20.30;96110.00;;;;8243841;28;20214;-63
2023/07/03 05:59:03;;;;;;;24.95;12.00;;;;;20.30;96117.00;;;;8250703;28;20206;-66
2023/07/03 06:03:06;;;;;;;31.17;12.25;;;;;20.30;96123.00;;;;8250106;28;20258;-65
2023/07/03 06:07:12;;;;;;;26.52;12.20;;;;;20.30;96116.00;;;;8247788;28;20564;-64
2023/07/03 06:11:17;;;;;;;28.00;12.73;;;;;20.30;96118.00;;;;8245363;28;20213;-62
2023/07/03 06:15:23;;;;;;;26.38;11.43;;;;;20.40;96114.00;;;;8244932;28;20314;-65
2023/07/03 06:19:27;;;;;;;24.98;11.35;;;;;20.40;96125.00;;;;8244306;28;20234;-62
2023/07/03 06:23:33;;;;;;;27.67;12.50;;;;;20.50;96126.00;;;;8247695;28;20202;-65
2023/07/03 06:27:38;;;;;;;26.80;11.90;;;;;20.60;96129.00;;;;8252954;28;20224;-63
2023/07/03 06:31:42;;;;;;;31.95;12.90;;;;;20.70;96129.00;;;;8250182;28;20272;-64
2023/07/03 06:35:49;;;;;;;31.95;12.70;;;;;20.80;96128.00;;;;8244842;28;20241;-65
2023/07/03 06:40:09;;;;;;;29.25;12.93;;;;;21.10;96134.00;;;;8254207;28;20195;-63
2023/07/03 06:44:14;;;;;;;31.65;12.23;;;;;21.70;96130.00;;;;8239727;28;20302;-68
2023/07/03 06:48:20;;;;;;;28.55;11.88;;;;;22.20;96135.00;;;;8247284;28;20192;-61
2023/07/03 06:52:23;;;;;;;30.58;12.45;;;;;22.50;96128.00;;;;8242664;28;20195;-66
2023/07/03 06:56:29;;;;;;;23.50;11.73;;;;;22.70;96124.00;;;;8245578;28;20235;-64
2023/07/03 07:00:32;;;;;;;26.35;11.85;;;;;23.00;96129.00;;;;8260214;28;20286;-64
2023/07/03 07:04:41;;;;;;;32.72;12.15;;;;;23.40;96131.00;;;;8248559;28;20231;-65
2023/07/03 07:08:45;;;;;;;25.80;12.32;;;;;23.80;96123.00;;;;8252266;28;20255;-65
2023/07/03 07:12:51;;;;;;;26.58;11.90;;;;;24.10;96126.00;;;;8251768;28;20672;-63
2023/07/03 07:16:54;;;;;;;20.67;10.25;;;;;23.90;96121.00;;;;8246834;28;20322;-62
2023/07/03 07:21:07;;;;;;;26.70;11.65;;;;;23.80;96114.00;;;;8251420;28;20203;-63
2023/07/03 07:25:10;;;;;;;24.67;10.80;;;;;23.90;96119.00;;;;8248815;28;20199;-64
2023/07/03 07:29:18;;;;;;;25.63;11.05;;;;;24.20;96128.00;;;;8226266;28;20231;-63
2023/07/03 07:33:22;;;;;;;25.02;11.25;;;;;24.40;96128.00;;;;8247015;28;20282;-64
2023/07/03 07:37:25;;;;;;;22.33;10.75;;;;;24.50;96125.00;;;;8247591;28;20290;-64
2023/07/03 07:41:32;;;;;;;23.50;11.23;;;;;24.70;96123.00;;;;8254670;28;20719;-65
2023/07/03 07:45:39;;;;;;;24.25;11.18;;;;;24.80;96122.00;;;;8245396;28;20199;-65
2023/07/03 07:49:44;;;;;;;24.60;9.32;;;;;24.80;96113.00;;;;8243079;28;20218;-63
2023/07/03 07:53:47;;;;;;;21.23;10.05;;;;;25.00;96118.00;;;;8247122;28;20217;-63
2023/07/03 07:57:52;;;;;;;22.17;9.57;;;;;25.10;96115.00;;;;8239258;28;21005;-65
2023/07/03 08:01:59;;;;;;;21.58;10.00;;;;;25.10;96105.00;;;;8248613;28;20930;-63
2023/07/03 08:06:05;;;;;;;22.50;9.10;;;;;25.20;96105.00;;;;8232437;28;20246;-66
2023/07/03 08:10:10;;;;;;;23.35;10.68;;;;;25.50;96104.00;;;;8251661;28;21082;-63
2023/07/03 08:14:14;;;;;;;24.45;10.40;;;;;25.60;96103.00;;;;8248942;28;20505;-66
2023/07/03 08:18:22;;;;;;;20.95;10.60;;;;;25.90;96099.00;;;;8248663;28;20222;-65
2023/07/03 08:22:26;;;;;;;25.27;9.68;;;;;26.10;96112.00;;;;8251785;28;20286;-65
2023/07/03 08:26:30;;;;;;;20.23;8.00;;;;;26.20;96101.00;;;;8246247;28;20676;-64
2023/07/03 08:30:33;;;;;;;17.85;8.23;;;;;25.90;96113.00;;;;8249239;28;20210;-64
2023/07/03 08:34:40;;;;;;;20.35;8.05;;;;;26.10;96110.00;;;;8251952;28;20626;-65
2023/07/03 08:43:21;;;;;;;19.35;8.70;;;;;26.20;96107.00;;;;8245777;28;20202;-65
2023/07/03 08:47:29;;;;;;;23.02;8.07;;;;;27.00;96108.00;;;;8246969;28;20198;-65
2023/07/03 08:51:38;;;;;;;20.35;9.10;;;;;27.00;96106.00;;;;8246203;28;20214;-64
2023/07/03 08:55:52;;;;;;;20.90;9.38;;;;;26.50;96104.00;;;;8249475;28;20223;-63
2023/07/03 08:59:55;;;;;;;22.20;9.18;;;;;26.10;96108.00;;;;8231465;28;20213;-64
2023/07/03 09:04:20;;;;;;;18.85;9.40;;;;;25.60;96101.00;;;;8227688;28;20226;-63
2023/07/03 09:08:29;;;;;;;18.80;9.88;;;;;25.40;96111.00;;;;8247702;28;20206;-62
2023/07/03 09:12:38;;;;;;;21.45;8.73;;;;;25.10;96119.00;;;;8240529;28;20208;-64
2023/07/03 09:16:46;;;;;;;19.50;9.70;;;;;24.70;96112.00;;;;8233851;28;20245;-62
2023/07/03 09:20:53;;;;;;;22.20;10.15;;;;;24.40;96114.00;;;;8247224;28;20202;-64
2023/07/03 09:24:59;;;;;;;18.55;8.80;;;;;24.20;96128.00;;;;8251878;28;20286;-62
2023/07/03 09:29:05;;;;;;;19.15;9.45;;;;;24.00;96131.00;;;;8245246;28;20298;-62
2023/07/03 09:33:09;;;;;;;21.33;9.13;;;;;24.00;96135.00;;;;8228465;28;20200;-62
2023/07/03 09:37:15;;;;;;;20.60;9.75;;;;;24.20;96138.00;;;;8254169;28;20234;-63
2023/07/03 09:41:29;;;;;;;25.33;8.75;;;;;24.60;96128.00;;;;8251683;28;20242;-64
2023/07/03 09:45:34;;;;;;;17.70;8.73;;;;;25.30;96138.00;;;;8249818;28;20214;-65
2023/07/03 09:49:37;;;;;;;18.58;8.85;;;;;25.70;96143.00;;;;8256751;28;20208;-65
2023/07/03 09:53:43;;;;;;;14.73;8.65;;;;;25.90;96137.00;;;;8255937;28;20744;-64
2023/07/03 09:57:47;;;;;;;16.98;7.55;;;;;26.00;96143.00;;;;8261270;28;20321;-64
2023/07/03 10:01:56;;;;;;;16.25;7.88;;;;;25.90;96136.00;;;;8257504;28;20295;-66
2023/07/03 10:06:17;;;;;;;16.52;7.45;;;;;25.80;96146.00;;;;8251193;28;20290;-65
2023/07/03 10:10:27;;;;;;;17.10;8.07;;;;;25.80;96140.00;;;;8250705;28;20269;-64
2023/07/03 10:14:43;;;;;;;17.42;8.75;;;;;26.10;96137.00;;;;8244786;28;20213;-64
2023/07/03 10:18:51;;;;;;;18.88;7.82;;;;;26.20;96136.00;;;;8251646;28;20926;-65
2023/07/03 10:22:59;;;;;;;17.17;7.55;;;;;26.70;96133.00;;;;8255176;28;20203;-65
2023/07/03 10:27:04;;;;;;;13.48;6.60;;;;;27.30;96131.00;;;;8249606;28;20333;-63
2023/07/03 10:31:20;;;;;;;16.98;6.68;;;;;27.60;96148.00;;;;8249068;28;20723;-67
2023/07/03 10:35:28;;;;;;;12.07;6.47;;;;;27.30;96130.00;;;;8253333;28;20236;-67
2023/07/03 10:39:42;;;;;;;15.80;6.07;;;;;27.30;96144.00;;;;8251907;28;20207;-64
2023/07/03 10:43:55;;;;;;;12.88;6.05;;;;;27.70;96137.00;;;;8251463;28;20207;-62
2023/07/03 10:48:04;;;;;;;15.30;5.90;;;;;27.90;96138.00;;;;8250995;28;20209;-68
2023/07/03 10:52:18;;;;;;;13.75;5.80;;;;;29.00;96137.00;;;;8238534;28;20250;-68
2023/07/03 10:56:26;;;;;;;9.82;5.50;;;;;30.30;96126.00;;;;8235272;28;20329;-65
2023/07/03 11:00:34;;;;;;;12.63;5.53;;;;;30.50;96119.00;;;;8233138;28;20214;-65
2023/07/03 11:04:46;;;;;;;14.40;5.53;;;;;29.70;96118.00;;;;8236585;28;20587;-65
2023/07/03 11:08:59;;;;;;;8.80;4.97;;;;;30.30;96122.00;;;;8252219;28;20203;-65
2023/07/03 11:13:09;;;;;;;15.40;5.97;;;;;30.90;96113.00;;;;8249303;28;20308;-65
2023/07/03 11:17:18;;;;;;;14.27;5.85;;;;;30.90;96111.00;;;;8244558;28;20234;-63
2023/07/03 11:21:32;;;;;;;12.70;5.20;;;;;31.50;96118.00;;;;8247177;28;20203;-66
2023/07/03 11:25:45;;;;;;;10.18;5.00;;;;;31.50;96108.00;;;;8245363;28;20207;-65
2023/07/03 11:29:53;;;;;;;10.98;5.00;;;;;31.30;96109.00;;;;8255804;28;20215;-66
2023/07/03 11:33:57;;;;;;;14.93;5.72;;;;;31.90;96101.00;;;;8247481;28;20253;-67
2023/07/03 11:38:10;;;;;;;13.50;6.10;;;;;32.00;96117.00;;;;8242655;28;20234;-64
2023/07/03 11:42:25;;;;;;;12.95;5.80;;;;;30.80;96116.00;;;;8249115;28;20206;-65
2023/07/03 11:46:31;;;;;;;13.02;5.90;;;;;30.50;96119.00;;;;8247797;28;20206;-65
2023/07/03 11:50:37;;;;;;;15.52;6.05;;;;;30.60;96121.00;;;;8247235;28;20203;-63
2023/07/03 11:54:44;;;;;;;16.42;6.50;;;;;31.40;96115.00;;;;8250998;28;21063;-64
2023/07/03 11:58:47;;;;;;;14.65;6.78;;;;;31.60;96135.00;;;;8245880;28;20818;-65
2023/07/03 12:03:01;;;;;;;13.25;6.20;;;;;30.60;96129.00;;;;8246380;28;20226;-65
2023/07/03 12:07:04;;;;;;;17.00;6.57;;;;;30.40;96125.00;;;;8247137;28;20199;-64
2023/07/03 12:11:14;;;;;;;17.77;7.10;;;;;30.00;96125.00;;;;8242615;28;20289;-64
2023/07/03 12:15:18;;;;;;;15.70;7.07;;;;;29.70;96126.00;;;;8249736;28;20203;-66
2023/07/03 12:19:25;;;;;;;15.70;6.60;;;;;30.00;96124.00;;;;8247970;28;20226;-64
2023/07/03 12:23:39;;;;;;;15.95;6.78;;;;;30.20;96121.00;;;;8247547;28;20287;-64
2023/07/03 12:27:53;;;;;;;14.45;6.82;;;;;30.70;96124.00;;;;8248708;28;20199;-65
2023/07/03 12:32:05;;;;;;;18.42;6.75;;;;;31.50;96115.00;;;;8246852;28;20289;-64
2023/07/03 12:36:08;;;;;;;13.88;7.10;;;;;31.50;96108.00;;;;8227449;28;20295;-63
2023/07/03 12:40:15;;;;;;;12.52;6.68;;;;;30.70;96120.00;;;;8241141;28;20704;-64
2023/07/03 12:44:27;;;;;;;14.90;7.07;;;;;30.20;96129.00;;;;8250662;28;20207;-65
2023/07/03 12:48:33;;;;;;;15.15;6.07;;;;;30.30;96128.00;;;;8237519;28;20206;-66
2023/07/03 12:52:36;;;;;;;14.50;7.65;;;;;29.80;96130.00;;;;8244141;28;20202;-67
2023/07/03 12:56:43;;;;;;;18.52;7.70;;;;;29.30;96122.00;;;;8242676;28;20203;-64
2023/07/03 13:00:59;;;;;;;13.45;7.03;;;;;28.80;96123.00;;;;8250062;28;20961;-64
2023/07/03 13:05:08;;;;;;;17.73;7.03;;;;;28.50;96128.00;;;;8246967;28;20349;-65
2023/07/03 13:09:14;;;;;;;16.98;6.90;;;;;28.10;96122.00;;;;8246630;28;20328;-64
2023/07/03 13:13:20;;;;;;;12.80;6.70;;;;;27.90;96123.00;;;;8245523;28;20661;-65
2023/07/03 13:17:31;;;;;;;16.23;7.20;;;;;28.00;96125.00;;;;8239350;28;20257;-63
2023/07/03 13:21:37;;;;;;;16.75;7.10;;;;;27.90;96128.00;;;;8248285;28;20198;-65
2023/07/03 13:25:48;;;;;;;14.82;6.60;;;;;27.60;96123.00;;;;8252744;28;20194;-64
2023/07/03 13:29:57;;;;;;;21.75;7.85;;;;;28.20;96122.00;;;;8255483;28;20232;-64
2023/07/03 13:34:12;;;;;;;22.13;8.18;;;;;28.80;96143.00;;;;8250832;28;20218;-66
2023/07/03 13:38:28;;;;;;;18.23;7.18;;;;;29.20;96126.00;;;;8254641;28;20226;-65
2023/07/03 13:42:31;;;;;;;13.38;7.50;;;;;29.80;96121.00;;;;8254468;28;20289;-66
2023/07/03 13:46:35;;;;;;;15.48;7.25;;;;;29.40;96122.00;;;;8255461;28;20500;-64
2023/07/03 13:50:41;;;;;;;15.15;7.38;;;;;29.40;96118.00;;;;8250905;28;20331;-64
2023/07/03 13:54:44;;;;;;;17.25;7.65;;;;;29.20;96125.00;;;;8255426;28;20305;-65
2023/07/03 13:58:47;;;;;;;14.18;6.60;;;;;29.70;96114.00;;;;8246480;28;20309;-64
2023/07/03 14:02:50;;;;;;;15.35;7.03;;;;;30.30;96111.00;;;;8254837;28;20235;-66
2023/07/03 14:06:55;;;;;;;11.18;6.25;;;;;30.50;96104.00;;;;8241526;28;20199;-63
2023/07/03 14:10:58;;;;;;;12.88;6.32;;;;;30.10;96103.00;;;;8252121;28;20217;-65
2023/07/03 14:15:02;;;;;;;20.00;7.00;;;;;30.20;96110.00;;;;8246973;28;20293;-63
2023/07/03 14:19:05;;;;;;;16.73;7.05;;;;;30.00;96108.00;;;;8255734;28;20321;-65
2023/07/03 14:23:12;;;;;;;21.63;6.90;;;;;30.10;96103.00;;;;8252200;28;20211;-62
2023/07/03 14:27:15;;;;;;;14.02;6.15;;;;;30.50;96105.00;;;;8259671;28;20210;-64
2023/07/03 14:31:20;;;;;;;14.73;6.30;;;;;30.20;96103.00;;;;8248551;28;20305;-63
2023/07/03 14:35:23;;;;;;;12.90;5.70;;;;;29.80;96094.00;;;;8251007;28;20267;-64
2023/07/03 14:39:28;;;;;;;12.00;5.82;;;;;30.30;96093.00;;;;8250294;28;20292;-64
2023/07/03 14:43:32;;;;;;;14.95;5.65;;;;;30.80;96096.00;;;;8251702;28;20194;-63
2023/07/03 14:47:37;;;;;;;10.32;5.40;;;;;30.70;96100.00;;;;8256435;28;20207;-64
2023/07/03 14:51:41;;;;;;;12.90;5.72;;;;;30.10;96096.00;;;;8247413;28;20195;-64
2023/07/03 14:55:54;;;;;;;12.05;5.72;;;;;30.70;96084.00;;;;8246587;28;20210;-64
2023/07/03 14:59:57;;;;;;;11.73;6.32;;;;;31.10;96083.00;;;;8250496;28;20219;-64
2023/07/03 15:04:05;;;;;;;15.90;5.93;;;;;30.50;96080.00;;;;8251879;28;20242;-65
2023/07/03 15:08:13;;;;;;;11.95;5.88;;;;;30.80;96076.00;;;;8253117;28;20245;-64
2023/07/03 15:12:19;;;;;;;15.32;5.78;;;;;30.70;96073.00;;;;8253248;28;20207;-64
2023/07/03 15:16:27;;;;;;;10.98;5.45;;;;;30.30;96080.00;;;;8231621;28;20199;-63
2023/07/03 15:20:31;;;;;;;13.73;5.47;;;;;30.50;96074.00;;;;8249682;28;20230;-65
2023/07/03 15:24:36;;;;;;;10.55;5.88;;;;;30.00;96079.00;;;;8249861;28;20211;-64
2023/07/03 15:28:46;;;;;;;13.75;5.38;;;;;29.40;96080.00;;;;8249584;28;20194;-64
2023/07/03 15:32:52;;;;;;;10.45;5.50;;;;;29.40;96078.00;;;;8246032;28;20246;-66
2023/07/03 15:36:58;;;;;;;13.57;5.50;;;;;28.80;96079.00;;;;8241646;28;20798;-64
2023/07/03 15:41:01;;;;;;;14.45;6.05;;;;;28.40;96078.00;;;;8239101;28;20224;-63
2023/07/03 15:45:08;;;;;;;15.00;5.68;;;;;28.10;96072.00;;;;8261854;28;20205;-65
2023/07/03 15:49:14;;;;;;;11.18;5.38;;;;;27.90;96075.00;;;;8243568;28;20203;-64
2023/07/03 15:53:17;;;;;;;17.90;5.95;;;;;28.40;96064.00;;;;8253241;28;20202;-65
2023/07/03 15:57:21;;;;;;;12.88;4.95;;;;;28.30;96075.00;;;;8253025;28;20290;-65
2023/07/03 16:01:28;;;;;;;12.65;5.85;;;;;28.10;96071.00;;;;8246965;28;20685;-65
2023/07/03 16:05:35;;;;;;;14.10;5.13;;;;;28.00;96081.00;;;;8247819;28;20266;-64
2023/07/03 16:09:38;;;;;;;16.35;5.15;;;;;28.00;96084.00;;;;8248590;28;20285;-65
2023/07/03 16:13:42;;;;;;;13.85;5.20;;;;;28.00;96081.00;;;;8264832;28;20227;-65
2023/07/03 16:17:49;;;;;;;11.20;4.80;;;;;28.20;96093.00;;;;8284152;28;20289;-64
2023/07/03 16:21:52;;;;;;;8.27;4.30;;;;;27.80;96097.00;;;;8254169;28;20208;-66
2023/07/03 16:26:00;;;;;;;7.32;3.90;;;;;27.60;96107.00;;;;8252789;28;20195;-65
2023/07/03 16:30:08;;;;;;;10.65;4.03;;;;;27.70;96105.00;;;;8268961;28;20279;-66
2023/07/03 16:34:14;;;;;;;8.98;3.70;;;;;27.40;96111.00;;;;8258352;28;20289;-65
2023/07/03 16:38:17;;;;;;;8.43;3.60;;;;;26.90;96101.00;;;;8274274;28;20308;-65
2023/07/03 16:42:21;;;;;;;8.38;2.90;;;;;26.60;96118.00;;;;8269835;28;20290;-65
2023/07/03 16:46:30;;;;;;;7.90;3.17;;;;;26.40;96109.00;;;;8264218;28;20241;-65
2023/07/03 16:50:36;;;;;;;6.25;3.55;;;;;26.60;96114.00;;;;8266302;28;20226;-65
2023/07/03 16:54:39;;;;;;;9.77;3.55;;;;;27.10;96122.00;;;;8272911;28;20229;-64
2023/07/03 16:58:46;;;;;;;6.95;3.08;;;;;27.30;96126.00;;;;8255105;28;20257;-67
2023/07/03 17:02:50;;;;;;;3.28;2.50;;;;;27.10;96122.00;;;;8256466;28;20229;-63
2023/07/03 17:06:55;;;;;;;6.07;2.60;;;;;26.70;96123.00;;;;8257150;28;20215;-64
2023/07/03 17:11:00;;;;;;;6.40;2.70;;;;;26.50;96109.00;;;;8248643;28;20686;-65
2023/07/03 17:15:10;;;;;;;4.93;2.53;;;;;26.30;96120.00;;;;8260785;28;20982;-65
2023/07/03 17:19:13;;;;;;;2.80;2.45;;;;;26.30;96125.00;;;;8253422;28;20581;-63
2023/07/03 17:23:22;;;;;;;1.95;1.77;;;;;27.30;96126.00;;;;8251084;28;21386;-63
2023/07/03 17:27:25;;;;;;;2.92;1.80;;;;;28.20;96130.00;;;;8255088;28;20242;-65
2023/07/03 17:31:28;;;;;;;2.20;1.70;;;;;28.90;96131.00;;;;8273664;28;20272;-64
2023/07/03 17:35:32;;;;;;;3.92;1.50;;;;;28.70;96127.00;;;;8256044;28;20209;-65
2023/07/03 17:39:36;;;;;;;5.93;2.00;;;;;28.40;96140.00;;;;8250555;28;20317;-64
2023/07/03 17:43:41;;;;;;;2.42;1.70;;;;;27.90;96134.00;;;;8261447;28;20338;-65
2023/07/03 17:47:45;;;;;;;2.40;1.20;;;;;27.80;96129.00;;;;8249222;28;20291;-63
2023/07/03 17:51:55;;;;;;;3.85;1.58;;;;;27.30;96143.00;;;;8244649;28;20933;-64
2023/07/03 17:56:00;;;;;;;2.40;1.55;;;;;26.70;96133.00;;;;8243271;28;20286;-64
2023/07/03 18:00:14;;;;;;;2.45;1.63;;;;;26.20;96125.00;;;;8246395;28;20704;-63
2023/07/03 18:04:23;;;;;;;2.90;1.48;;;;;25.70;96138.00;;;;8242132;28;20906;-64
2023/07/03 18:08:26;;;;;;;3.42;1.85;;;;;25.30;96145.00;;;;8242985;28;20631;-64
2023/07/03 18:12:32;;;;;;;2.78;1.85;;;;;25.00;96134.00;;;;8251036;28;20295;-63
2023/07/03 18:16:37;;;;;;;1.65;1.55;;;;;24.90;96141.00;;;;8241810;28;20311;-64
2023/07/03 18:20:40;;;;;;;1.50;1.40;;;;;24.70;96140.00;;;;8243108;28;20241;-64
2023/07/03 18:24:44;;;;;;;3.22;1.60;;;;;24.40;96142.00;;;;8244835;28;20404;-65
2023/07/03 18:28:48;;;;;;;2.03;1.50;;;;;24.20;96137.00;;;;8250929;28;20649;-64
2023/07/03 18:32:54;;;;;;;3.95;1.63;;;;;24.00;96134.00;;;;8246246;28;20199;-63
2023/07/03 18:36:57;;;;;;;1.73;1.48;;;;;23.70;96137.00;;;;8254546;28;20706;-64
2023/07/03 18:41:11;;;;;;;2.58;1.60;;;;;23.50;96136.00;;;;8254143;28;20222;-65
2023/07/03 18:45:18;;;;;;;1.73;1.40;;;;;23.30;96131.00;;;;8244548;28;20640;-63
2023/07/03 18:49:21;;;;;;;1.50;1.40;;;;;23.10;96131.00;;;;8266352;28;20207;-65
2023/07/03 18:53:25;;;;;;;2.47;1.52;;;;;22.90;96135.00;;;;8277711;28;20282;-65
2023/07/03 18:57:28;;;;;;;1.52;1.42;;;;;22.70;96142.00;;;;8266670;28;20629;-65
2023/07/03 19:01:42;;;;;;;3.78;1.33;;;;;22.50;96145.00;;;;8264288;28;20240;-65
2023/07/03 19:05:49;;;;;;;4.90;1.70;;;;;22.30;96142.00;;;;8262650;28;20253;-66
2023/07/03 19:09:53;;;;;;;7.75;2.20;;;;;22.00;96145.00;;;;8234866;28;20545;-66
2023/07/03 19:14:19;;;;;;;4.30;1.85;;;;;21.60;96141.00;;;;8252156;28;20210;-66
2023/07/03 19:18:27;;;;;;;2.28;1.70;;;;;21.20;96141.00;;;;8254015;28;20210;-65
2023/07/03 19:22:30;;;;;;;1.50;1.40;;;;;20.60;96147.00;;;;8240614;28;21123;-66
2023/07/03 19:26:36;;;;;;;1.50;1.50;;;;;20.20;96137.00;;;;8255090;28;20201;-66
2023/07/03 19:30:39;;;;;;;2.25;1.70;;;;;19.90;96142.00;;;;8243520;28;20211;-66
2023/07/03 19:34:45;;;;;;;6.03;2.03;;;;;19.50;96139.00;;;;8261366;28;20205;-66
2023/07/03 19:38:50;;;;;;;2.75;1.70;;;;;19.20;96145.00;;;;8260196;28;20252;-66
2023/07/03 19:42:54;;;;;;;5.20;1.70;;;;;19.00;96144.00;;;;8249562;28;20211;-66
2023/07/03 19:46:59;;;;;;;6.70;2.30;;;;;18.70;96151.00;;;;8266724;28;20290;-66
2023/07/03 19:51:07;;;;;;;4.93;1.80;;;;;18.30;96156.00;;;;8264776;28;20199;-66
2023/07/03 19:55:11;;;;;;;2.20;2.00;;;;;18.00;96164.00;;;;8257872;28;20198;-65
2023/07/03 19:59:16;;;;;;;5.15;1.60;;;;;17.70;96158.00;;;;8234992;28;20195;-65
2023/07/03 20:03:19;;;;;;;3.28;1.70;;;;;17.60;96156.00;;;;8244832;28;20688;-65
2023/07/03 20:07:24;;;;;;;5.50;1.77;;;;;17.40;96162.00;;;;8241437;28;20258;-65
2023/07/03 20:11:33;;;;;;;1.80;1.70;;;;;17.30;96166.00;;;;8246081;28;20240;-65
2023/07/03 20:15:41;;;;;;;2.22;1.70;;;;;17.10;96160.00;;;;8238459;28;20286;-66
2023/07/03 20:19:48;;;;;;;3.63;1.90;;;;;16.90;96157.00;;;;8244408;28;20226;-66